Time;durP1;ratioP1;P1;durP2;ratioP2;P2;SDS_P1;SDS_P2;PMS_P1;PMS_P2;Temp;Humidity;BMP_temperature;BMP_pressure;BME280_temperature;BME280_humidity;BME280_pressure;Samples;Min_cycle;Max_cycle;Signal;HPM_P1;HPM_P2
2022/12/08 00:01:22;;;;;;;23.07;18.57;;;5.60;99.90;;;;;;5089652;28;20812;-29
2022/12/08 00:03:48;;;;;;;27.97;20.07;;;5.90;99.90;;;;;;5087390;28;20422;-30
2022/12/08 00:09:22;;;;;;;25.00;20.67;;;5.70;99.90;;;;;;5087588;28;20856;-29
2022/12/08 00:11:55;;;;;;;28.53;21.83;;;5.70;99.90;;;;;;5079286;28;20568;-29
2022/12/08 00:14:27;;;;;;;28.97;21.73;;;5.70;99.90;;;;;;5087201;28;20419;-29
2022/12/08 00:16:53;;;;;;;34.63;21.27;;;5.70;99.90;;;;;;5087695;28;20438;-29
2022/12/08 00:19:19;;;;;;;25.67;20.53;;;5.70;99.90;;;;;;5087450;28;20446;-29
2022/12/08 00:21:45;;;;;;;27.10;21.57;;;6.00;99.90;;;;;;5087670;28;20454;-29
2022/12/08 00:24:11;;;;;;;25.77;21.50;;;5.70;99.90;;;;;;5087339;28;20649;-30
2022/12/08 00:26:37;;;;;;;29.20;21.43;;;5.70;99.90;;;;;;5087979;28;20750;-30
2022/12/08 00:29:03;;;;;;;26.80;21.90;;;5.70;99.90;;;;;;5091382;28;20449;-29
2022/12/08 00:31:29;;;;;;;29.30;22.27;;;5.80;99.90;;;;;;5091567;28;20418;-30
2022/12/08 00:33:55;;;;;;;30.27;20.83;;;5.80;99.90;;;;;;5089719;28;20433;-30
2022/12/08 00:36:21;;;;;;;29.00;20.80;;;5.70;99.90;;;;;;5092009;28;20184;-29
2022/12/08 00:38:47;;;;;;;28.23;20.97;;;5.70;99.90;;;;;;5091449;28;20418;-29
2022/12/08 00:41:15;;;;;;;30.83;20.87;;;5.70;99.90;;;;;;5091117;28;20212;-29
2022/12/08 00:43:41;;;;;;;26.37;20.83;;;5.70;99.90;;;;;;5090952;28;20419;-30
2022/12/08 00:46:07;;;;;;;26.27;20.83;;;5.70;99.90;;;;;;5091438;28;20422;-30
2022/12/08 00:48:32;;;;;;;28.63;22.03;;;5.80;99.90;;;;;;5090801;28;20185;-29
2022/12/08 00:50:58;;;;;;;27.87;21.07;;;5.60;99.90;;;;;;5091560;28;20189;-29
2022/12/08 00:53:24;;;;;;;25.40;20.57;;;5.70;99.90;;;;;;5090807;28;20543;-29
2022/12/08 00:55:49;;;;;;;27.30;20.50;;;5.80;99.90;;;;;;5089634;28;20595;-30
2022/12/08 00:58:15;;;;;;;26.23;21.50;;;5.90;99.90;;;;;;5090848;28;20587;-30
2022/12/08 01:00:42;;;;;;;24.10;20.00;;;5.70;99.90;;;;;;5090848;28;20188;-29
2022/12/08 01:03:11;;;;;;;24.40;20.70;;;5.70;99.90;;;;;;5082559;28;20553;-30
2022/12/08 01:05:36;;;;;;;24.87;20.43;;;5.50;99.90;;;;;;5090957;28;20418;-30
2022/12/08 01:08:05;;;;;;;23.47;19.47;;;5.70;99.90;;;;;;5091096;28;20410;-29
2022/12/08 01:10:33;;;;;;;22.80;18.47;;;5.80;99.90;;;;;;5090222;28;20602;-29
2022/12/08 01:12:59;;;;;;;21.83;18.80;;;5.70;99.90;;;;;;5089261;28;20426;-30
2022/12/08 01:15:25;;;;;;;24.33;18.57;;;5.60;99.90;;;;;;5090966;28;20421;-30
2022/12/08 01:17:50;;;;;;;25.17;20.37;;;5.70;99.90;;;;;;5091055;28;20190;-29
2022/12/08 01:20:16;;;;;;;23.23;19.23;;;5.60;99.90;;;;;;5090343;28;20172;-29
2022/12/08 01:22:41;;;;;;;21.57;18.80;;;5.60;99.90;;;;;;5090538;28;20212;-29
2022/12/08 01:25:07;;;;;;;26.10;19.43;;;5.70;99.90;;;;;;5090360;28;20188;-29
2022/12/08 01:27:33;;;;;;;22.47;19.13;;;5.50;99.90;;;;;;5106369;28;20169;-29
2022/12/08 01:29:59;;;;;;;21.87;19.50;;;5.60;99.90;;;;;;5090422;28;20869;-30
2022/12/08 01:32:24;;;;;;;21.30;18.83;;;5.50;99.90;;;;;;5083587;28;20181;-29
2022/12/08 01:34:50;;;;;;;21.13;18.77;;;5.50;99.90;;;;;;5068859;28;20209;-29
2022/12/08 01:37:16;;;;;;;22.90;18.80;;;5.50;99.90;;;;;;5070190;28;20216;-29
2022/12/08 01:39:42;;;;;;;22.27;19.30;;;5.70;99.90;;;;;;5069318;28;20180;-29
2022/12/08 01:42:37;;;;;;;26.73;20.17;;;5.50;99.90;;;;;;5070101;28;20456;-29
2022/12/08 01:45:13;;;;;;;22.07;18.77;;;5.50;99.90;;;;;;5069745;28;20302;-29
2022/12/08 01:47:48;;;;;;;23.67;19.90;;;5.60;99.90;;;;;;5068739;28;20408;-29
2022/12/08 01:50:16;;;;;;;22.87;18.87;;;5.40;99.90;;;;;;5069646;28;20790;-29
2022/12/08 01:52:48;;;;;;;22.13;18.63;;;5.40;99.90;;;;;;5070114;28;20817;-29
2022/12/08 01:55:19;;;;;;;25.00;18.80;;;5.70;99.90;;;;;;5084220;28;20426;-29
2022/12/08 01:57:52;;;;;;;20.90;18.00;;;5.40;99.90;;;;;;5077055;28;20459;-29
2022/12/08 02:00:20;;;;;;;21.43;18.30;;;5.70;99.90;;;;;;5069381;28;20407;-29
2022/12/08 02:03:01;;;;;;;21.23;18.93;;;5.40;99.90;;;;;;5069368;28;20465;-29
2022/12/08 02:05:31;;;;;;;23.90;18.30;;;5.50;99.90;;;;;;5069928;28;20815;-29
2022/12/08 02:07:59;;;;;;;22.00;18.83;;;5.40;99.90;;;;;;5069598;28;20419;-29
2022/12/08 02:10:28;;;;;;;25.30;19.77;;;5.50;99.90;;;;;;5069930;28;20407;-29
2022/12/08 02:12:56;;;;;;;25.37;19.57;;;5.50;99.90;;;;;;5081332;28;20422;-29
2022/12/08 02:15:38;;;;;;;25.13;20.10;;;5.60;99.90;;;;;;5089722;28;20418;-30
2022/12/08 02:18:20;;;;;;;24.20;19.67;;;5.40;99.90;;;;;;5089625;28;20925;-29
2022/12/08 02:21:01;;;;;;;25.87;19.47;;;5.60;99.90;;;;;;5089359;28;20410;-29
2022/12/08 02:23:52;;;;;;;23.50;18.90;;;5.40;99.90;;;;;;5087541;28;20427;-29
2022/12/08 02:26:52;;;;;;;23.93;19.00;;;5.60;99.90;;;;;;5089681;28;20414;-30
2022/12/08 02:29:37;;;;;;;22.80;18.67;;;5.60;99.90;;;;;;5084840;28;20529;-29
2022/12/08 02:32:30;;;;;;;26.50;20.37;;;5.60;99.90;;;;;;5069351;28;20404;-29
2022/12/08 02:35:17;;;;;;;30.10;20.80;;;5.40;99.90;;;;;;5067451;28;20498;-29
2022/12/08 02:38:06;;;;;;;28.00;20.47;;;5.40;99.90;;;;;;5069229;28;20438;-29
2022/12/08 02:40:52;;;;;;;26.50;19.87;;;5.50;99.90;;;;;;5068810;28;20407;-30
2022/12/08 02:43:34;;;;;;;26.47;19.53;;;5.70;99.90;;;;;;5068814;28;20422;-29
2022/12/08 02:46:11;;;;;;;28.43;21.00;;;5.40;99.90;;;;;;5068833;28;20391;-29
2022/12/08 02:48:37;;;;;;;30.30;19.13;;;5.50;99.90;;;;;;5068517;28;20463;-29
2022/12/08 02:51:03;;;;;;;26.77;19.67;;;5.30;99.90;;;;;;5068290;28;20469;-29
2022/12/08 02:53:32;;;;;;;25.87;18.97;;;5.60;99.90;;;;;;5068618;28;20407;-29
2022/12/08 02:56:33;;;;;;;27.07;20.00;;;5.40;99.90;;;;;;5068674;28;20482;-29
2022/12/08 02:59:21;;;;;;;26.33;19.67;;;5.40;99.90;;;;;;5083460;28;20431;-29
2022/12/08 03:02:07;;;;;;;25.13;19.57;;;5.40;99.90;;;;;;5088949;28;20517;-30
2022/12/08 03:05:03;;;;;;;26.17;18.07;;;5.50;99.90;;;;;;5088732;28;20402;-29
2022/12/08 03:08:05;;;;;;;23.07;17.77;;;5.40;99.90;;;;;;5088879;28;20407;-30
2022/12/08 03:10:40;;;;;;;27.67;20.10;;;5.40;99.90;;;;;;5080825;28;20432;-29
2022/12/08 03:13:15;;;;;;;25.50;19.43;;;5.60;99.90;;;;;;5088380;28;20866;-29
2022/12/08 03:15:44;;;;;;;23.43;18.53;;;5.30;99.90;;;;;;5088654;28;20504;-30
2022/12/08 03:18:13;;;;;;;28.00;18.40;;;5.40;99.90;;;;;;5088750;28;20832;-29
2022/12/08 03:20:40;;;;;;;24.13;18.43;;;5.50;99.90;;;;;;5088290;28;20944;-29
2022/12/08 03:23:10;;;;;;;25.10;19.33;;;5.60;99.90;;;;;;5087998;28;20530;-29
2022/12/08 03:25:43;;;;;;;24.17;17.33;;;5.50;99.90;;;;;;5088439;28;20470;-29
2022/12/08 03:28:09;;;;;;;28.37;19.23;;;5.50;99.90;;;;;;5088315;28;20497;-29
2022/12/08 03:30:39;;;;;;;22.40;16.70;;;5.60;99.90;;;;;;5088143;28;20505;-29
2022/12/08 03:33:16;;;;;;;23.53;17.70;;;5.50;99.90;;;;;;5087966;28;20411;-29
2022/12/08 03:35:44;;;;;;;25.00;18.80;;;5.40;99.90;;;;;;5077981;28;20517;-29
2022/12/08 03:38:13;;;;;;;22.53;16.57;;;5.60;99.90;;;;;;5072717;28;20453;-29
2022/12/08 03:40:39;;;;;;;24.50;18.27;;;5.30;99.90;;;;;;5067510;28;20450;-29
2022/12/08 03:43:05;;;;;;;22.30;17.20;;;5.40;99.90;;;;;;5067661;28;20534;-29
2022/12/08 03:45:31;;;;;;;22.10;16.67;;;5.40;99.90;;;;;;5067937;28;20880;-29
2022/12/08 03:47:57;;;;;;;24.20;16.77;;;5.60;99.90;;;;;;5068290;28;20408;-29
2022/12/08 03:50:22;;;;;;;23.57;17.23;;;5.40;99.90;;;;;;5067428;28;20437;-29
2022/12/08 03:52:48;;;;;;;24.43;17.30;;;5.40;99.90;;;;;;5065968;28;20672;-29
2022/12/08 03:55:15;;;;;;;24.60;16.77;;;5.40;99.90;;;;;;5068076;28;20200;-29
2022/12/08 03:57:41;;;;;;;22.83;17.57;;;5.40;99.90;;;;;;5078292;28;20191;-29
2022/12/08 04:00:10;;;;;;;21.10;15.80;;;5.40;99.90;;;;;;5087570;28;20423;-29
2022/12/08 04:02:35;;;;;;;18.67;15.37;;;5.40;99.90;;;;;;5087632;28;20208;-29
2022/12/08 04:05:01;;;;;;;25.20;16.40;;;5.60;99.90;;;;;;5087674;28;20422;-29
2022/12/08 04:07:27;;;;;;;21.10;15.37;;;5.40;99.90;;;;;;5087763;28;20302;-29
2022/12/08 04:09:52;;;;;;;22.83;15.20;;;5.50;99.90;;;;;;5087373;28;20245;-29
2022/12/08 04:12:18;;;;;;;22.00;15.27;;;5.50;99.90;;;;;;5078922;28;20192;-29
2022/12/08 04:14:44;;;;;;;22.50;15.87;;;5.40;99.90;;;;;;5082970;28;20242;-29
2022/12/08 04:17:09;;;;;;;19.20;14.03;;;5.30;99.90;;;;;;5067333;28;20207;-29
2022/12/08 04:19:35;;;;;;;20.93;14.80;;;5.40;99.90;;;;;;5082798;28;20207;-29
2022/12/08 04:22:00;;;;;;;15.50;13.10;;;5.40;99.90;;;;;;5067491;28;20651;-29
2022/12/08 04:24:26;;;;;;;22.07;14.90;;;5.60;99.90;;;;;;5075013;28;20253;-29
2022/12/08 04:26:52;;;;;;;20.30;13.67;;;5.50;99.90;;;;;;5079309;28;20180;-29
2022/12/08 04:29:17;;;;;;;18.80;14.03;;;5.50;99.90;;;;;;5085997;28;20196;-29
2022/12/08 04:31:43;;;;;;;18.37;13.60;;;5.60;99.90;;;;;;5103497;28;20181;-29
2022/12/08 04:34:09;;;;;;;17.83;13.30;;;5.50;99.90;;;;;;5085075;28;20234;-29
2022/12/08 04:36:34;;;;;;;19.13;15.13;;;5.40;99.90;;;;;;5087402;28;20184;-29
2022/12/08 04:39:01;;;;;;;16.90;13.23;;;5.70;99.90;;;;;;5087124;28;20249;-29
2022/12/08 04:41:27;;;;;;;19.20;13.10;;;5.50;99.90;;;;;;5078773;28;20215;-29
2022/12/08 04:43:52;;;;;;;17.80;13.60;;;5.50;99.90;;;;;;5085969;28;20419;-29
2022/12/08 04:46:18;;;;;;;18.20;15.07;;;5.40;99.90;;;;;;5086264;28;20185;-29
2022/12/08 04:48:44;;;;;;;18.63;13.73;;;5.50;99.90;;;;;;5087509;28;20184;-29
2022/12/08 04:51:17;;;;;;;17.10;12.80;;;5.50;99.90;;;;;;5087755;28;20177;-29
2022/12/08 04:53:44;;;;;;;16.43;12.40;;;5.40;99.90;;;;;;5087295;28;20647;-29
2022/12/08 04:56:14;;;;;;;15.87;12.13;;;5.50;99.90;;;;;;5087433;28;20467;-29
2022/12/08 04:58:40;;;;;;;16.47;12.00;;;5.40;99.90;;;;;;5074798;28;20522;-29
2022/12/08 05:01:06;;;;;;;19.30;12.70;;;5.30;99.90;;;;;;5067222;28;20905;-29
2022/12/08 05:03:31;;;;;;;15.67;11.03;;;5.40;99.90;;;;;;5066861;28;20239;-29
2022/12/08 05:06:01;;;;;;;15.90;12.47;;;5.50;99.90;;;;;;5065556;28;20514;-29
2022/12/08 05:08:27;;;;;;;15.03;11.43;;;5.40;99.90;;;;;;5066934;28;20549;-29
2022/12/08 05:10:52;;;;;;;15.90;11.33;;;5.40;99.90;;;;;;5067443;28;20802;-29
2022/12/08 05:13:18;;;;;;;13.90;11.10;;;5.40;99.90;;;;;;5083856;28;20459;-29
2022/12/08 05:15:44;;;;;;;18.47;12.47;;;5.60;99.90;;;;;;5090965;28;20302;-29
2022/12/08 05:18:10;;;;;;;14.67;11.30;;;5.30;99.90;;;;;;5090973;28;20196;-29
2022/12/08 05:20:35;;;;;;;14.73;11.73;;;5.40;99.90;;;;;;5089488;28;20189;-29
2022/12/08 05:23:01;;;;;;;15.47;12.20;;;5.20;99.90;;;;;;5078865;28;20475;-30
2022/12/08 05:25:27;;;;;;;16.47;11.70;;;5.30;99.90;;;;;;5070312;28;20230;-30
2022/12/08 05:27:52;;;;;;;14.53;12.07;;;5.50;99.90;;;;;;5075787;28;20185;-30
2022/12/08 05:30:18;;;;;;;15.87;12.17;;;5.30;99.90;;;;;;5074996;28;20673;-30
2022/12/08 05:32:44;;;;;;;14.57;11.73;;;5.30;99.90;;;;;;5090293;28;20740;-29
2022/12/08 05:35:09;;;;;;;16.37;12.10;;;5.40;99.90;;;;;;5089130;28;20177;-29
2022/12/08 05:37:35;;;;;;;13.40;11.03;;;5.40;99.90;;;;;;5090798;28;20317;-29
2022/12/08 05:40:01;;;;;;;15.20;11.47;;;5.30;99.90;;;;;;5089864;28;20181;-30
2022/12/08 05:42:26;;;;;;;13.23;10.90;;;5.60;99.90;;;;;;5090107;28;20775;-30
2022/12/08 05:44:52;;;;;;;15.60;12.43;;;5.30;99.90;;;;;;5090354;28;20449;-30
2022/12/08 05:47:18;;;;;;;14.70;10.93;;;5.30;99.90;;;;;;5089072;28;20192;-29
2022/12/08 05:49:43;;;;;;;15.70;12.90;;;5.40;99.90;;;;;;5085177;28;20663;-29
2022/12/08 05:52:09;;;;;;;15.33;11.20;;;5.40;99.90;;;;;;5085439;28;20208;-30
2022/12/08 05:54:35;;;;;;;16.10;12.37;;;5.40;99.90;;;;;;5089361;28;20234;-29
2022/12/08 05:57:01;;;;;;;15.50;12.13;;;5.40;99.90;;;;;;5088990;28;20196;-30
2022/12/08 05:59:26;;;;;;;17.00;12.57;;;5.50;99.90;;;;;;5068676;28;20197;-30
2022/12/08 06:01:52;;;;;;;19.20;12.80;;;5.20;99.90;;;;;;5068755;28;20212;-30
2022/12/08 06:04:17;;;;;;;18.60;13.27;;;5.50;99.90;;;;;;5067199;28;20265;-30
2022/12/08 06:06:43;;;;;;;16.97;12.73;;;5.40;99.90;;;;;;5069680;28;20174;-30
2022/12/08 06:09:09;;;;;;;17.13;12.87;;;5.40;99.90;;;;;;5069700;28;20209;-30
2022/12/08 06:11:35;;;;;;;18.17;13.80;;;5.50;99.90;;;;;;5069941;28;20186;-30
2022/12/08 06:14:02;;;;;;;17.27;13.10;;;5.50;99.90;;;;;;5069412;28;20426;-30
2022/12/08 06:16:28;;;;;;;16.80;13.10;;;5.40;99.90;;;;;;5069770;28;20284;-30
2022/12/08 06:18:54;;;;;;;18.23;13.60;;;5.50;99.90;;;;;;5069180;28;20835;-30
2022/12/08 06:21:20;;;;;;;18.03;13.87;;;5.30;99.90;;;;;;5077610;28;20499;-29
2022/12/08 06:23:53;;;;;;;16.73;12.83;;;5.30;99.90;;;;;;5080889;28;20831;-29
2022/12/08 06:26:19;;;;;;;16.43;13.43;;;5.50;99.90;;;;;;5080558;28;20172;-29
2022/12/08 06:28:46;;;;;;;16.27;13.03;;;5.40;99.90;;;;;;5087842;28;20781;-29
2022/12/08 06:31:23;;;;;;;18.90;14.00;;;5.40;99.90;;;;;;5089341;28;20399;-29
2022/12/08 06:33:49;;;;;;;18.73;12.77;;;5.50;99.90;;;;;;5087984;28;20422;-29
2022/12/08 06:36:17;;;;;;;17.20;12.83;;;5.60;99.90;;;;;;5105170;28;20415;-29
2022/12/08 06:38:43;;;;;;;16.97;12.03;;;5.40;99.90;;;;;;5088900;28;20575;-29
2022/12/08 06:41:10;;;;;;;14.90;11.67;;;5.30;99.90;;;;;;5089215;28;20407;-29
2022/12/08 06:43:35;;;;;;;14.13;11.13;;;5.40;99.90;;;;;;5088913;28;20472;-29
2022/12/08 06:46:03;;;;;;;14.93;11.67;;;5.50;99.90;;;;;;5087635;28;20840;-29
2022/12/08 06:48:29;;;;;;;15.87;12.00;;;5.50;99.90;;;;;;5087679;28;20437;-29
2022/12/08 06:50:55;;;;;;;16.60;12.17;;;5.40;99.90;;;;;;5089032;28;20875;-29
2022/12/08 06:53:20;;;;;;;14.20;11.90;;;5.50;99.90;;;;;;5080690;28;20211;-30
2022/12/08 06:55:50;;;;;;;18.00;12.33;;;5.30;99.90;;;;;;5070061;28;20275;-30
2022/12/08 06:58:16;;;;;;;19.50;14.07;;;5.30;99.90;;;;;;5077823;28;20449;-29
2022/12/08 07:00:42;;;;;;;16.60;12.77;;;5.60;99.90;;;;;;5086002;28;20442;-29
2022/12/08 07:03:09;;;;;;;14.67;12.00;;;5.60;99.90;;;;;;5083631;28;20250;-29
2022/12/08 07:05:35;;;;;;;15.80;12.27;;;5.40;99.90;;;;;;5082069;28;20279;-30
2022/12/08 07:08:01;;;;;;;20.10;13.73;;;5.40;99.90;;;;;;5071219;28;20442;-29
2022/12/08 07:10:27;;;;;;;16.33;12.20;;;5.50;99.90;;;;;;5066259;28;20502;-29
2022/12/08 07:12:52;;;;;;;14.00;10.30;;;5.50;99.90;;;;;;5067232;28;20185;-29
2022/12/08 07:15:18;;;;;;;12.43;10.10;;;5.40;99.90;;;;;;5067596;28;20639;-30
2022/12/08 07:17:44;;;;;;;14.23;10.43;;;5.20;99.90;;;;;;5067928;28;20669;-29
2022/12/08 07:20:10;;;;;;;15.20;11.80;;;5.30;99.90;;;;;;5067298;28;20510;-29
2022/12/08 07:22:36;;;;;;;17.93;12.67;;;5.30;99.90;;;;;;5067676;28;20279;-29
2022/12/08 07:25:01;;;;;;;16.50;12.03;;;5.40;99.90;;;;;;5068752;28;20411;-29
2022/12/08 07:27:27;;;;;;;12.80;10.40;;;5.30;99.90;;;;;;5067895;28;20724;-29
2022/12/08 07:29:53;;;;;;;14.77;10.07;;;5.40;99.90;;;;;;5087072;28;20295;-29
2022/12/08 07:32:19;;;;;;;13.03;10.23;;;5.20;99.90;;;;;;5088134;28;20897;-29
2022/12/08 07:34:44;;;;;;;14.00;10.33;;;5.60;99.90;;;;;;5087598;28;20289;-29
2022/12/08 07:37:10;;;;;;;13.07;9.83;;;5.20;99.90;;;;;;5086429;28;20283;-29
2022/12/08 07:39:35;;;;;;;13.73;10.43;;;5.30;99.90;;;;;;5087833;28;20187;-29
2022/12/08 07:42:01;;;;;;;13.40;10.50;;;5.30;99.90;;;;;;5087903;28;20208;-29
2022/12/08 07:44:27;;;;;;;14.67;11.33;;;5.50;99.90;;;;;;5077496;28;20184;-29
2022/12/08 07:46:52;;;;;;;14.17;10.47;;;5.30;99.90;;;;;;5076500;28;20798;-29
2022/12/08 07:49:18;;;;;;;16.87;11.27;;;5.30;99.90;;;;;;5085400;28;20279;-29
2022/12/08 07:51:44;;;;;;;14.60;11.10;;;5.40;99.90;;;;;;5077597;28;20189;-29
2022/12/08 07:54:11;;;;;;;15.67;11.27;;;5.40;99.90;;;;;;5081065;28;20180;-29
2022/12/08 07:56:37;;;;;;;17.00;11.33;;;5.40;99.90;;;;;;5067722;28;20185;-29
2022/12/08 07:59:03;;;;;;;14.73;10.90;;;5.50;99.90;;;;;;5082997;28;20509;-29
2022/12/08 08:01:30;;;;;;;13.97;11.57;;;5.50;99.90;;;;;;5087978;28;20208;-29
2022/12/08 08:04:00;;;;;;;15.20;10.83;;;5.50;99.90;;;;;;5087911;28;20435;-29
2022/12/08 08:06:26;;;;;;;13.70;10.30;;;5.40;99.90;;;;;;5087887;28;20826;-29
2022/12/08 08:08:52;;;;;;;13.40;11.07;;;5.30;99.90;;;;;;5103442;28;20585;-29
2022/12/08 08:11:18;;;;;;;13.83;10.83;;;5.20;99.90;;;;;;5087717;28;20421;-29
2022/12/08 08:13:44;;;;;;;15.00;10.80;;;5.30;99.90;;;;;;5066996;28;20415;-29
2022/12/08 08:16:12;;;;;;;11.70;9.90;;;5.20;99.90;;;;;;5070357;28;20547;-30
2022/12/08 08:18:38;;;;;;;14.60;11.30;;;5.50;99.90;;;;;;5084001;28;20690;-29
2022/12/08 08:21:03;;;;;;;12.80;10.23;;;5.30;99.90;;;;;;5087613;28;20576;-30
2022/12/08 08:23:29;;;;;;;13.00;9.80;;;5.30;99.90;;;;;;5085044;28;20774;-29
2022/12/08 08:25:59;;;;;;;13.10;10.90;;;5.20;99.90;;;;;;5075969;28;20173;-29
2022/12/08 08:28:25;;;;;;;12.73;10.70;;;5.20;99.90;;;;;;5074857;28;20174;-29
2022/12/08 08:30:50;;;;;;;12.77;11.07;;;5.40;99.90;;;;;;5075505;28;20445;-29
2022/12/08 08:33:16;;;;;;;14.60;12.23;;;5.20;99.90;;;;;;5067248;28;20498;-29
2022/12/08 08:35:42;;;;;;;15.37;11.60;;;5.20;99.90;;;;;;5066954;28;20280;-29
2022/12/08 08:38:07;;;;;;;13.70;12.03;;;5.40;99.90;;;;;;5067623;28;20220;-29
2022/12/08 08:40:33;;;;;;;16.20;12.43;;;5.20;99.90;;;;;;5066804;28;20533;-29
2022/12/08 08:43:00;;;;;;;14.10;11.97;;;5.40;99.90;;;;;;5067115;28;20217;-29
2022/12/08 08:45:26;;;;;;;14.10;11.70;;;5.30;99.90;;;;;;5067540;28;20716;-29
2022/12/08 08:47:52;;;;;;;15.23;11.60;;;5.30;99.90;;;;;;5069456;28;20415;-29
2022/12/08 08:50:18;;;;;;;12.70;11.17;;;5.20;99.90;;;;;;5084190;28;20910;-29
2022/12/08 08:52:43;;;;;;;13.87;11.20;;;5.40;99.90;;;;;;5082198;28;20195;-29
2022/12/08 08:55:09;;;;;;;14.63;11.47;;;5.20;99.90;;;;;;5070982;28;20435;-30
2022/12/08 08:57:35;;;;;;;15.80;12.10;;;5.20;99.90;;;;;;5074080;28;20173;-29
2022/12/08 09:00:01;;;;;;;13.80;11.60;;;5.30;99.90;;;;;;5089715;28;20655;-29
2022/12/08 09:02:26;;;;;;;13.50;11.63;;;5.20;99.90;;;;;;5090892;28;20204;-29
2022/12/08 09:04:52;;;;;;;13.47;10.83;;;5.10;99.90;;;;;;5085796;28;20418;-29
2022/12/08 09:07:18;;;;;;;13.23;10.90;;;5.20;99.90;;;;;;5106118;28;20219;-30
2022/12/08 09:09:43;;;;;;;13.10;11.00;;;5.10;99.90;;;;;;5090256;28;20184;-30
2022/12/08 09:12:09;;;;;;;12.70;10.13;;;5.20;99.90;;;;;;5084955;28;20189;-30
2022/12/08 09:14:35;;;;;;;12.30;10.17;;;5.20;99.90;;;;;;5070451;28;20742;-29
2022/12/08 09:17:01;;;;;;;11.70;10.00;;;5.10;99.90;;;;;;5070660;28;20441;-30
2022/12/08 09:19:26;;;;;;;13.07;10.17;;;5.10;99.90;;;;;;5070085;28;20458;-29
2022/12/08 09:21:52;;;;;;;11.60;10.40;;;5.20;99.90;;;;;;5070976;28;20266;-29
2022/12/08 09:24:18;;;;;;;11.63;10.40;;;5.00;99.90;;;;;;5070353;28;20192;-29
2022/12/08 09:26:44;;;;;;;13.00;9.50;;;5.20;99.90;;;;;;5070688;28;20177;-29
2022/12/08 09:29:10;;;;;;;10.90;9.60;;;5.20;99.90;;;;;;5070111;28;20189;-30
2022/12/08 09:31:37;;;;;;;9.83;8.60;;;5.20;99.90;;;;;;5085920;28;20440;-29
2022/12/08 09:34:03;;;;;;;12.00;9.57;;;5.00;99.90;;;;;;5069116;28;20419;-29
2022/12/08 09:36:29;;;;;;;13.30;10.43;;;5.10;99.90;;;;;;5070261;28;20419;-29
2022/12/08 09:38:55;;;;;;;11.00;9.30;;;5.20;99.90;;;;;;5070123;28;20427;-29
2022/12/08 09:41:39;;;;;;;11.90;9.90;;;4.90;99.90;;;;;;5070268;28;20411;-29
2022/12/08 09:44:32;;;;;;;12.47;10.60;;;5.00;99.90;;;;;;5070093;28;20286;-29
2022/12/08 09:47:00;;;;;;;11.80;9.57;;;5.00;99.90;;;;;;5070038;28;20949;-29
2022/12/08 09:49:37;;;;;;;11.60;9.70;;;5.00;99.90;;;;;;5068348;28;20510;-29
2022/12/08 09:52:05;;;;;;;10.67;9.53;;;5.00;99.90;;;;;;5070101;28;20400;-30
2022/12/08 09:54:33;;;;;;;13.10;10.03;;;5.20;99.90;;;;;;5068435;28;20415;-30
2022/12/08 09:57:05;;;;;;;13.40;10.83;;;5.00;99.90;;;;;;5070046;28;20399;-29
2022/12/08 09:59:33;;;;;;;12.20;9.97;;;5.10;99.90;;;;;;5088069;28;20418;-29
2022/12/08 10:01:59;;;;;;;14.20;9.57;;;5.00;99.90;;;;;;5089709;28;20469;-30
2022/12/08 10:04:32;;;;;;;11.47;9.83;;;4.90;99.90;;;;;;5089969;28;20561;-29
2022/12/08 10:07:11;;;;;;;14.30;11.50;;;5.00;99.90;;;;;;5088493;28;20541;-29
2022/12/08 10:09:56;;;;;;;12.70;10.10;;;4.90;99.90;;;;;;5089600;28;20862;-29
2022/12/08 10:12:46;;;;;;;11.67;9.33;;;5.00;99.90;;;;;;5081479;28;20601;-29
2022/12/08 10:15:27;;;;;;;13.10;10.70;;;4.90;99.90;;;;;;5069777;28;20412;-30
2022/12/08 10:17:54;;;;;;;15.77;11.17;;;4.80;99.90;;;;;;5069512;28;20484;-29
2022/12/08 10:20:34;;;;;;;14.70;11.10;;;4.70;99.90;;;;;;5069325;28;20816;-29
2022/12/08 10:23:13;;;;;;;14.57;10.67;;;5.10;99.90;;;;;;5069067;28;20592;-29
2022/12/08 10:25:44;;;;;;;15.48;13.32;;;5.10;99.90;;;;;;5068504;28;20418;-29
2022/12/08 10:28:10;;;;;;;15.43;11.93;;;4.90;99.90;;;;;;5069270;28;20187;-29
2022/12/08 10:30:36;;;;;;;14.33;11.47;;;4.90;99.90;;;;;;5068875;28;20400;-29
2022/12/08 10:33:02;;;;;;;21.30;16.17;;;5.10;99.90;;;;;;5084050;28;20421;-29
2022/12/08 10:35:42;;;;;;;13.93;12.43;;;5.00;99.90;;;;;;5068314;28;20406;-29
2022/12/08 10:38:18;;;;;;;18.23;15.17;;;4.90;99.90;;;;;;5069168;28;20443;-29
2022/12/08 10:40:45;;;;;;;18.73;13.93;;;5.10;99.90;;;;;;5068676;28;20407;-29
2022/12/08 10:43:21;;;;;;;16.40;13.27;;;5.00;99.90;;;;;;5068401;28;20459;-29
2022/12/08 10:45:47;;;;;;;15.73;12.77;;;5.20;99.90;;;;;;5069081;28;20411;-29
2022/12/08 10:48:22;;;;;;;17.90;14.60;;;5.10;99.90;;;;;;5067291;28;20453;-29
2022/12/08 10:50:51;;;;;;;13.40;10.67;;;4.80;99.90;;;;;;5068949;28;20493;-30
2022/12/08 10:53:25;;;;;;;18.37;13.73;;;5.00;99.90;;;;;;5068418;28;20419;-29
2022/12/08 10:56:01;;;;;;;13.83;10.80;;;5.00;99.90;;;;;;5068390;28;20418;-29
2022/12/08 10:58:41;;;;;;;13.43;11.73;;;5.10;99.90;;;;;;5078961;28;20406;-29
2022/12/08 11:01:16;;;;;;;17.60;14.13;;;5.00;99.90;;;;;;5087647;28;20528;-29
2022/12/08 11:03:47;;;;;;;13.53;11.67;;;5.00;99.90;;;;;;5088509;28;20921;-30
2022/12/08 11:06:28;;;;;;;11.87;10.47;;;5.00;99.90;;;;;;5088345;28;20411;-29
2022/12/08 11:08:56;;;;;;;16.90;14.17;;;4.90;99.90;;;;;;5088485;28;21334;-30
2022/12/08 11:11:44;;;;;;;19.20;15.40;;;5.00;99.90;;;;;;5088096;28;20781;-29
2022/12/08 11:14:25;;;;;;;14.30;11.03;;;5.20;99.90;;;;;;5087033;28;20403;-29
2022/12/08 11:16:52;;;;;;;14.57;11.77;;;5.10;99.90;;;;;;5088310;28;20774;-30
2022/12/08 11:19:19;;;;;;;14.60;12.00;;;5.00;99.90;;;;;;5088260;28;21037;-29
2022/12/08 11:21:46;;;;;;;13.00;11.47;;;5.20;99.90;;;;;;5088388;28;20966;-30
2022/12/08 11:24:14;;;;;;;11.83;9.63;;;5.10;99.90;;;;;;5088236;28;20893;-29
2022/12/08 11:26:46;;;;;;;11.83;10.27;;;5.00;99.90;;;;;;5088327;28;20403;-30
2022/12/08 11:29:12;;;;;;;12.27;9.70;;;5.20;99.90;;;;;;5088380;28;20415;-29
2022/12/08 11:31:42;;;;;;;12.43;10.83;;;5.10;99.90;;;;;;5088162;28;20411;-30
2022/12/08 11:34:31;;;;;;;12.80;11.33;;;5.10;99.90;;;;;;5086558;28;20411;-30
2022/12/08 11:36:58;;;;;;;15.60;12.43;;;5.10;99.90;;;;;;5088240;28;20827;-29
2022/12/08 11:39:27;;;;;;;16.57;11.70;;;5.00;99.90;;;;;;5087974;28;20822;-30
2022/12/08 11:41:55;;;;;;;14.00;12.03;;;5.30;99.90;;;;;;5087916;28;20458;-29
2022/12/08 11:44:45;;;;;;;13.67;12.17;;;5.30;99.90;;;;;;5088066;28;20402;-29
2022/12/08 11:47:39;;;;;;;17.07;13.47;;;5.00;99.90;;;;;;5087981;28;20565;-29
2022/12/08 11:50:28;;;;;;;19.30;15.80;;;5.20;99.90;;;;;;5087576;28;20464;-29
2022/12/08 11:52:55;;;;;;;15.00;13.37;;;5.30;99.90;;;;;;5087647;28;20398;-29
2022/12/08 11:55:46;;;;;;;18.80;14.63;;;5.10;99.90;;;;;;5087752;28;20820;-30
2022/12/08 11:58:18;;;;;;;17.70;13.57;;;4.90;99.90;;;;;;5079678;28;20863;-29
2022/12/08 12:00:44;;;;;;;18.43;14.53;;;5.00;99.90;;;;;;5067835;28;20430;-30
2022/12/08 12:03:40;;;;;;;20.90;16.23;;;5.10;99.90;;;;;;5067299;28;20546;-30
2022/12/08 12:06:32;;;;;;;16.80;14.57;;;5.20;99.90;;;;;;5067464;28;20553;-30
2022/12/08 12:09:18;;;;;;;20.20;15.57;;;5.20;99.90;;;;;;5067159;28;20416;-30
2022/12/08 12:12:13;;;;;;;20.43;17.00;;;5.20;99.90;;;;;;5070549;28;20403;-30
2022/12/08 12:15:02;;;;;;;21.10;17.10;;;5.00;99.90;;;;;;5087380;28;20451;-30
2022/12/08 12:17:47;;;;;;;18.43;16.30;;;5.10;99.90;;;;;;5087790;28;20441;-30
2022/12/08 12:20:28;;;;;;;21.30;15.83;;;5.20;99.90;;;;;;5087396;28;20405;-30
2022/12/08 12:23:11;;;;;;;21.07;15.17;;;5.10;99.90;;;;;;5089799;28;21032;-30
2022/12/08 12:25:44;;;;;;;18.90;14.43;;;5.10;99.90;;;;;;5091929;28;20444;-30
2022/12/08 12:28:12;;;;;;;16.80;13.13;;;5.30;99.90;;;;;;5092242;28;20403;-30
2022/12/08 12:31:03;;;;;;;17.50;14.30;;;5.20;99.90;;;;;;5091380;28;20415;-30
2022/12/08 12:33:30;;;;;;;18.50;14.27;;;5.30;99.90;;;;;;5088091;28;20509;-30
2022/12/08 12:36:00;;;;;;;17.60;14.07;;;5.30;99.90;;;;;;5091211;28;20449;-30
2022/12/08 12:38:59;;;;;;;17.77;13.73;;;5.30;99.90;;;;;;5091508;28;20580;-30
2022/12/08 12:41:28;;;;;;;19.00;13.80;;;5.30;99.90;;;;;;5091340;28;20408;-30
2022/12/08 12:44:12;;;;;;;15.97;12.63;;;5.20;99.90;;;;;;5091300;28;20401;-30
2022/12/08 12:46:43;;;;;;;19.10;14.20;;;5.20;99.90;;;;;;5089919;28;20467;-30
2022/12/08 12:49:47;;;;;;;17.70;13.63;;;5.20;99.90;;;;;;5091465;28;20533;-30
2022/12/08 12:52:17;;;;;;;18.67;14.03;;;5.20;99.90;;;;;;5091555;28;20413;-30
2022/12/08 12:55:09;;;;;;;16.57;13.43;;;5.10;99.90;;;;;;5090882;28;20414;-30
2022/12/08 12:57:37;;;;;;;18.40;14.37;;;5.30;99.90;;;;;;5084960;28;20780;-30